Time;durP1;ratioP1;P1;durP2;ratioP2;P2;SDS_P1;SDS_P2;PMS_P1;PMS_P2;Temp;Humidity;BMP_temperature;BMP_pressure;BME280_temperature;BME280_humidity;BME280_pressure;Samples;Min_cycle;Max_cycle;Signal;HPM_P1;HPM_P2
2023/01/30 00:02:54;;;;;;;;;;;19.00;51.20;;;;;;7673449;23;19916;-68
2023/01/30 00:05:55;;;;;;;;;;;19.00;51.20;;;;;;7673785;23;19915;-69
2023/01/30 00:08:55;;;;;;;;;;;19.00;51.20;;;;;;7673686;23;19904;-68
2023/01/30 00:11:56;;;;;;;;;;;19.00;51.20;;;;;;7674172;23;19966;-68
2023/01/30 00:14:56;;;;;;;;;;;19.00;51.20;;;;;;7673854;23;19904;-69
2023/01/30 00:17:57;;;;;;;;;;;19.00;51.20;;;;;;7672068;23;20244;-68
2023/01/30 00:20:58;;;;;;;;;;;19.00;51.20;;;;;;7673260;23;19905;-68
2023/01/30 00:23:59;;;;;;;;;;;19.00;51.20;;;;;;7673937;23;19904;-68
2023/01/30 00:27:00;;;;;;;;;;;19.00;51.20;;;;;;7673086;23;19908;-69
2023/01/30 00:30:03;;;;;;;;;;;19.00;51.20;;;;;;7673738;23;20350;-69
2023/01/30 00:33:03;;;;;;;;;;;19.00;51.20;;;;;;7673268;23;20328;-69
2023/01/30 00:36:04;;;;;;;;;;;19.00;51.20;;;;;;7673596;23;19908;-68
2023/01/30 00:39:05;;;;;;;;;;;19.00;51.20;;;;;;7673311;23;19911;-68
2023/01/30 00:48:48;;;;;;;;;;;19.00;51.20;;;;;;7673347;23;20240;-69
2023/01/30 00:51:49;;;;;;;;;;;19.00;51.20;;;;;;7673153;23;19923;-69
2023/01/30 00:54:51;;;;;;;;;;;19.00;51.20;;;;;;7673797;23;19904;-69
2023/01/30 00:57:51;;;;;;;;;;;19.00;51.20;;;;;;7672611;23;19915;-68
2023/01/30 01:00:52;;;;;;;;;;;19.00;51.20;;;;;;7673559;23;19904;-69
2023/01/30 01:03:52;;;;;;;;;;;19.00;51.20;;;;;;7673141;23;20356;-68
2023/01/30 01:06:53;;;;;;;;;;;19.00;51.10;;;;;;7673174;23;19916;-69
2023/01/30 01:09:53;;;;;;;;;;;19.00;51.20;;;;;;7673010;23;19905;-68
2023/01/30 01:12:54;;;;;;;;;;;19.00;51.20;;;;;;7673012;23;19962;-69
2023/01/30 01:15:55;;;;;;;;;;;19.00;51.20;;;;;;7673159;23;19905;-68
2023/01/30 01:18:55;;;;;;;;;;;19.00;51.20;;;;;;7671551;23;19914;-68
2023/01/30 01:21:56;;;;;;;;;;;19.00;51.20;;;;;;7672883;23;19912;-68
2023/01/30 01:24:56;;;;;;;;;;;19.00;51.20;;;;;;7671486;23;19908;-68
2023/01/30 01:27:57;;;;;;;;;;;19.00;51.20;;;;;;7672465;23;19928;-69
2023/01/30 01:30:57;;;;;;;;;;;19.00;51.20;;;;;;7671082;23;19912;-68
2023/01/30 01:33:58;;;;;;;;;;;19.00;51.20;;;;;;7671580;23;19955;-68
2023/01/30 01:36:58;;;;;;;;;;;19.00;51.20;;;;;;7673435;23;20293;-68
2023/01/30 01:43:20;;;;;;;;;;;19.00;51.20;;;;;;7672914;23;19908;-68
2023/01/30 01:46:23;;;;;;;;;;;19.00;51.20;;;;;;7671502;23;19908;-69
2023/01/30 01:49:25;;;;;;;;;;;19.00;51.10;;;;;;7671442;23;20328;-69
2023/01/30 01:52:25;;;;;;;;;;;19.00;51.10;;;;;;7671049;23;19983;-68
2023/01/30 01:55:26;;;;;;;;;;;19.00;51.10;;;;;;7672939;23;19931;-68
2023/01/30 01:58:40;;;;;;;;;;;19.00;51.10;;;;;;7670781;23;19966;-68
2023/01/30 02:01:40;;;;;;;;;;;19.00;51.10;;;;;;7672948;23;19986;-69
2023/01/30 02:08:07;;;;;;;;;;;19.00;51.10;;;;;;7675584;23;19909;-68
2023/01/30 02:11:19;;;;;;;;;;;19.00;51.10;;;;;;7673595;23;19932;-68
2023/01/30 02:14:19;;;;;;;;;;;19.00;51.20;;;;;;7673745;23;19963;-69
2023/01/30 02:17:21;;;;;;;;;;;19.00;51.10;;;;;;7675177;23;19920;-68
2023/01/30 02:20:28;;;;;;;;;;;19.00;51.10;;;;;;7674030;23;19904;-68
2023/01/30 02:23:37;;;;;;;;;;;19.00;51.10;;;;;;7673114;23;19914;-69
2023/01/30 02:26:47;;;;;;;;;;;19.00;51.10;;;;;;7673887;23;19915;-68
2023/01/30 02:30:13;;;;;;;;;;;19.00;51.10;;;;;;7674894;23;19927;-68
2023/01/30 02:33:29;;;;;;;;;;;19.00;51.10;;;;;;7672026;23;20512;-68
2023/01/30 02:36:48;;;;;;;;;;;19.00;51.10;;;;;;7673728;23;19904;-68
2023/01/30 02:39:49;;;;;;;;;;;19.00;51.10;;;;;;7674927;23;19904;-68
2023/01/30 02:43:09;;;;;;;;;;;19.00;51.10;;;;;;7674764;23;19966;-68
2023/01/30 02:46:10;;;;;;;;;;;19.00;51.10;;;;;;7663491;23;20275;-68
2023/01/30 02:49:17;;;;;;;;;;;19.00;51.00;;;;;;7673459;23;19915;-68
2023/01/30 02:52:19;;;;;;;;;;;19.00;51.00;;;;;;7675367;23;19904;-68
2023/01/30 02:55:21;;;;;;;;;;;19.00;51.00;;;;;;7674740;23;19915;-68
2023/01/30 02:58:23;;;;;;;;;;;19.00;51.10;;;;;;7674716;23;19931;-69
2023/01/30 03:01:42;;;;;;;;;;;19.00;51.00;;;;;;7674755;23;19908;-68
2023/01/30 03:05:01;;;;;;;;;;;19.00;51.00;;;;;;7674586;23;19909;-69
2023/01/30 03:08:15;;;;;;;;;;;19.00;51.00;;;;;;7674821;23;19904;-68
2023/01/30 03:11:16;;;;;;;;;;;19.00;51.00;;;;;;7674561;23;20321;-68
2023/01/30 03:14:29;;;;;;;;;;;19.00;51.00;;;;;;7674066;23;19904;-68
2023/01/30 03:17:30;;;;;;;;;;;19.00;51.00;;;;;;7675411;23;20521;-69
2023/01/30 03:20:35;;;;;;;;;;;19.00;51.00;;;;;;7675893;23;19935;-69
2023/01/30 03:23:35;;;;;;;;;;;19.00;51.00;;;;;;7675290;23;19908;-70
2023/01/30 03:26:42;;;;;;;;;;;19.00;51.00;;;;;;7673780;23;20221;-70
2023/01/30 03:29:42;;;;;;;;;;;19.00;51.00;;;;;;7675425;23;20332;-70
2023/01/30 03:32:43;;;;;;;;;;;19.00;51.00;;;;;;7674939;23;19963;-69
2023/01/30 03:35:43;;;;;;;;;;;19.00;51.00;;;;;;7675407;23;19904;-69
2023/01/30 03:38:44;;;;;;;;;;;19.00;51.00;;;;;;7674763;23;19904;-70
2023/01/30 03:41:45;;;;;;;;;;;19.00;51.00;;;;;;7673892;23;19993;-70
2023/01/30 03:44:45;;;;;;;;;;;19.00;51.00;;;;;;7675184;23;19909;-70
2023/01/30 03:47:46;;;;;;;;;;;19.00;51.00;;;;;;7675086;23;19905;-70
2023/01/30 03:50:46;;;;;;;;;;;19.00;51.00;;;;;;7673786;23;19915;-69
2023/01/30 03:53:47;;;;;;;;;;;19.00;51.00;;;;;;7675222;23;20320;-70
2023/01/30 03:56:48;;;;;;;;;;;19.00;51.00;;;;;;7673533;23;20400;-69
2023/01/30 03:59:48;;;;;;;;;;;19.00;50.90;;;;;;7675539;23;19904;-70
2023/01/30 04:02:49;;;;;;;;;;;19.00;51.70;;;;;;7675330;23;19919;-70
2023/01/30 04:05:49;;;;;;;;;;;19.00;51.00;;;;;;7675140;23;19915;-70
2023/01/30 04:08:53;;;;;;;;;;;19.00;51.00;;;;;;7673679;23;19904;-69
2023/01/30 04:11:54;;;;;;;;;;;19.00;51.00;;;;;;7674875;23;19905;-70
2023/01/30 04:14:55;;;;;;;;;;;19.00;51.00;;;;;;7674878;23;19905;-70
2023/01/30 04:17:55;;;;;;;;;;;19.00;51.00;;;;;;7673388;23;19912;-70
2023/01/30 04:20:56;;;;;;;;;;;19.00;51.00;;;;;;7674885;23;19905;-70
2023/01/30 04:23:56;;;;;;;;;;;19.00;51.00;;;;;;7674676;23;19912;-69
2023/01/30 04:26:57;;;;;;;;;;;19.00;50.90;;;;;;7672670;23;19908;-70
2023/01/30 04:29:57;;;;;;;;;;;19.00;50.90;;;;;;7674890;23;19909;-69
2023/01/30 04:32:58;;;;;;;;;;;19.00;51.00;;;;;;7674810;23;19924;-69
2023/01/30 04:35:59;;;;;;;;;;;19.00;51.00;;;;;;7674450;23;19904;-69
2023/01/30 04:38:59;;;;;;;;;;;19.00;51.00;;;;;;7674530;23;19938;-70
2023/01/30 04:42:00;;;;;;;;;;;19.00;50.90;;;;;;7673110;23;20308;-69
2023/01/30 04:45:00;;;;;;;;;;;19.00;50.90;;;;;;7674316;23;19963;-70
2023/01/30 04:48:01;;;;;;;;;;;19.00;50.90;;;;;;7675112;23;19909;-69
2023/01/30 04:51:01;;;;;;;;;;;19.00;50.90;;;;;;7674696;23;20695;-69
2023/01/30 04:54:03;;;;;;;;;;;19.00;50.90;;;;;;7674906;23;19905;-70
2023/01/30 04:57:03;;;;;;;;;;;19.00;50.90;;;;;;7674430;23;19943;-70
2023/01/30 05:00:41;;;;;;;;;;;19.00;51.00;;;;;;7673267;23;19908;-69
2023/01/30 05:03:42;;;;;;;;;;;19.00;50.90;;;;;;7674848;23;19915;-69
2023/01/30 05:06:43;;;;;;;;;;;19.00;50.90;;;;;;7674626;23;20492;-69
2023/01/30 05:09:43;;;;;;;;;;;18.90;50.90;;;;;;7675032;23;19952;-70
2023/01/30 05:12:44;;;;;;;;;;;19.00;50.90;;;;;;7674959;23;19904;-70
2023/01/30 05:15:45;;;;;;;;;;;19.00;50.90;;;;;;7674955;23;19935;-69
2023/01/30 05:18:45;;;;;;;;;;;19.00;50.90;;;;;;7673252;23;19912;-69
2023/01/30 05:21:46;;;;;;;;;;;19.00;50.90;;;;;;7673723;23;19908;-69
2023/01/30 05:24:46;;;;;;;;;;;19.00;50.90;;;;;;7674981;23;19904;-69
2023/01/30 05:27:47;;;;;;;;;;;19.00;50.90;;;;;;7674919;23;19927;-69
2023/01/30 05:30:47;;;;;;;;;;;19.00;50.90;;;;;;7674492;23;19904;-69
2023/01/30 05:33:49;;;;;;;;;;;19.00;50.90;;;;;;7673525;23;19908;-69
2023/01/30 05:36:49;;;;;;;;;;;18.90;50.90;;;;;;7674367;23;19908;-69
2023/01/30 05:39:50;;;;;;;;;;;18.90;50.90;;;;;;7674953;23;20046;-69
2023/01/30 05:42:50;;;;;;;;;;;19.00;50.90;;;;;;7673261;23;20379;-69
2023/01/30 05:45:52;;;;;;;;;;;18.90;50.90;;;;;;7674443;23;19915;-69
2023/01/30 05:48:53;;;;;;;;;;;19.00;50.90;;;;;;7674268;23;19905;-69
2023/01/30 05:51:53;;;;;;;;;;;19.00;50.90;;;;;;7674345;23;20320;-69
2023/01/30 05:54:54;;;;;;;;;;;18.90;50.80;;;;;;7674618;23;19905;-69
2023/01/30 05:57:54;;;;;;;;;;;19.00;50.90;;;;;;7674076;23;19909;-69
2023/01/30 06:01:05;;;;;;;;;;;19.00;50.90;;;;;;7672786;23;19904;-69
2023/01/30 06:04:06;;;;;;;;;;;19.00;50.90;;;;;;7674605;23;20355;-69
2023/01/30 06:07:06;;;;;;;;;;;19.00;50.90;;;;;;7674345;23;19905;-69
2023/01/30 06:10:07;;;;;;;;;;;19.00;50.90;;;;;;7672787;23;19905;-69
2023/01/30 06:13:09;;;;;;;;;;;18.90;50.80;;;;;;7672953;23;19904;-68
2023/01/30 06:16:11;;;;;;;;;;;19.00;50.90;;;;;;7672922;23;19991;-69
2023/01/30 06:19:12;;;;;;;;;;;18.90;50.80;;;;;;7674562;23;19999;-69
2023/01/30 06:22:12;;;;;;;;;;;19.00;51.60;;;;;;7674328;23;20221;-69
2023/01/30 06:25:13;;;;;;;;;;;19.00;50.90;;;;;;7674614;23;19955;-69
2023/01/30 06:28:14;;;;;;;;;;;19.00;50.90;;;;;;7673898;23;20362;-69
2023/01/30 06:31:15;;;;;;;;;;;19.00;50.90;;;;;;7673858;23;19916;-70
2023/01/30 06:34:16;;;;;;;;;;;19.00;50.90;;;;;;7672907;23;19908;-69
2023/01/30 06:37:18;;;;;;;;;;;19.00;50.90;;;;;;7672057;23;20430;-69
2023/01/30 06:40:19;;;;;;;;;;;19.00;50.90;;;;;;7670532;23;19908;-69
2023/01/30 06:43:19;;;;;;;;;;;19.00;50.90;;;;;;7672625;23;19915;-69
2023/01/30 06:46:20;;;;;;;;;;;19.00;50.90;;;;;;7673884;23;20320;-69
2023/01/30 06:49:20;;;;;;;;;;;19.00;50.90;;;;;;7675233;23;19915;-69
2023/01/30 06:52:21;;;;;;;;;;;19.00;50.90;;;;;;7674626;23;19908;-69
2023/01/30 06:55:23;;;;;;;;;;;19.00;50.90;;;;;;7676608;23;19983;-69
2023/01/30 06:58:24;;;;;;;;;;;19.00;50.90;;;;;;7675549;23;19912;-69
2023/01/30 07:01:25;;;;;;;;;;;19.00;51.00;;;;;;7678456;23;19904;-68
2023/01/30 07:04:26;;;;;;;;;;;19.00;51.70;;;;;;7678443;23;19935;-69
2023/01/30 07:07:26;;;;;;;;;;;19.00;51.00;;;;;;7678585;23;19983;-69
2023/01/30 07:10:30;;;;;;;;;;;19.00;51.00;;;;;;7675750;23;19979;-69
2023/01/30 07:13:31;;;;;;;;;;;19.00;51.00;;;;;;7678542;23;20328;-69
2023/01/30 07:16:31;;;;;;;;;;;19.00;51.00;;;;;;7678478;23;19908;-69
2023/01/30 07:19:32;;;;;;;;;;;18.90;50.90;;;;;;7675563;23;19905;-69
2023/01/30 07:22:33;;;;;;;;;;;19.00;51.00;;;;;;7678420;23;19991;-69
2023/01/30 07:25:33;;;;;;;;;;;19.00;51.10;;;;;;7678073;23;19910;-69
2023/01/30 07:28:34;;;;;;;;;;;19.00;51.10;;;;;;7676235;23;19940;-69
2023/01/30 07:31:34;;;;;;;;;;;19.00;51.10;;;;;;7672806;23;19917;-69
2023/01/30 07:34:35;;;;;;;;;;;19.00;51.30;;;;;;7677852;23;19955;-69
2023/01/30 07:37:35;;;;;;;;;;;19.10;51.00;;;;;;7677260;23;19908;-70
2023/01/30 07:40:36;;;;;;;;;;;19.10;50.80;;;;;;7677418;23;19904;-69
2023/01/30 07:43:36;;;;;;;;;;;19.10;50.70;;;;;;7677256;23;19908;-69
2023/01/30 07:46:37;;;;;;;;;;;19.20;50.70;;;;;;7677354;23;20011;-69
2023/01/30 07:49:38;;;;;;;;;;;19.20;50.60;;;;;;7677315;23;19904;-69
2023/01/30 07:52:39;;;;;;;;;;;19.20;50.60;;;;;;7676928;23;19912;-69
2023/01/30 07:55:40;;;;;;;;;;;19.20;50.60;;;;;;7675503;23;20335;-70
2023/01/30 07:58:40;;;;;;;;;;;19.20;50.70;;;;;;7675970;23;20452;-69
2023/01/30 08:01:41;;;;;;;;;;;19.20;50.80;;;;;;7675339;23;20310;-69
2023/01/30 08:04:41;;;;;;;;;;;19.20;50.80;;;;;;7676051;23;20339;-69
2023/01/30 08:07:42;;;;;;;;;;;19.20;50.90;;;;;;7677170;23;19911;-69
2023/01/30 08:10:43;;;;;;;;;;;19.20;51.00;;;;;;7677781;23;19911;-69
2023/01/30 08:13:43;;;;;;;;;;;19.20;51.00;;;;;;7677491;23;19904;-69
2023/01/30 08:16:44;;;;;;;;;;;19.20;51.00;;;;;;7677574;23;19904;-69
2023/01/30 08:19:45;;;;;;;;;;;19.20;51.00;;;;;;7677404;23;19908;-69
2023/01/30 08:22:45;;;;;;;;;;;19.20;51.10;;;;;;7677489;23;19912;-69
2023/01/30 08:25:46;;;;;;;;;;;19.20;51.10;;;;;;7676794;23;19927;-69
2023/01/30 08:28:47;;;;;;;;;;;19.20;51.10;;;;;;7677445;23;19911;-69
2023/01/30 08:31:47;;;;;;;;;;;19.20;51.10;;;;;;7675121;23;19936;-70
2023/01/30 08:34:48;;;;;;;;;;;19.20;51.10;;;;;;7676369;23;20343;-69
2023/01/30 08:37:49;;;;;;;;;;;19.20;51.10;;;;;;7675812;23;19935;-69
2023/01/30 08:40:49;;;;;;;;;;;19.20;51.20;;;;;;7675633;23;20014;-69
2023/01/30 08:43:50;;;;;;;;;;;19.20;51.10;;;;;;7672691;23;19967;-69
2023/01/30 08:46:50;;;;;;;;;;;19.20;51.10;;;;;;7675309;23;19932;-69
2023/01/30 08:49:51;;;;;;;;;;;19.20;51.20;;;;;;7675643;23;19908;-69
2023/01/30 08:52:52;;;;;;;;;;;19.20;51.20;;;;;;7675714;23;19963;-70
2023/01/30 08:55:53;;;;;;;;;;;19.20;51.20;;;;;;7675306;23;19904;-70
2023/01/30 08:58:54;;;;;;;;;;;19.20;51.20;;;;;;7676174;23;20247;-70
2023/01/30 09:01:54;;;;;;;;;;;19.20;51.20;;;;;;7674501;23;19987;-70
2023/01/30 09:04:56;;;;;;;;;;;19.20;51.20;;;;;;7675573;23;19912;-69
2023/01/30 09:07:56;;;;;;;;;;;19.20;51.20;;;;;;7675516;23;19905;-70
2023/01/30 09:10:58;;;;;;;;;;;19.20;51.30;;;;;;7675587;23;19911;-69
2023/01/30 09:13:58;;;;;;;;;;;19.20;51.30;;;;;;7675648;23;19911;-68
2023/01/30 09:16:59;;;;;;;;;;;19.20;51.30;;;;;;7675805;23;20485;-69
2023/01/30 09:20:00;;;;;;;;;;;19.20;51.30;;;;;;7675400;23;19904;-69
2023/01/30 09:23:00;;;;;;;;;;;19.20;51.30;;;;;;7674232;23;19909;-70
2023/01/30 09:26:03;;;;;;;;;;;19.20;51.30;;;;;;7674873;23;19914;-70
2023/01/30 09:29:03;;;;;;;;;;;19.20;51.40;;;;;;7676493;23;19987;-69
2023/01/30 09:32:04;;;;;;;;;;;19.20;51.40;;;;;;7674417;23;19920;-69
2023/01/30 09:35:05;;;;;;;;;;;19.20;51.40;;;;;;7675146;23;19904;-66
2023/01/30 09:38:05;;;;;;;;;;;19.20;51.40;;;;;;7675548;23;19904;-66
2023/01/30 09:41:26;;;;;;;;;;;19.20;51.40;;;;;;7672988;23;19908;-69
2023/01/30 09:44:40;;;;;;;;;;;19.20;51.00;;;;;;7674224;23;19908;-69
2023/01/30 09:48:01;;;;;;;;;;;19.20;50.30;;;;;;7668656;23;19939;-68
2023/01/30 09:51:08;;;;;;;;;;;19.20;50.60;;;;;;7649864;23;19934;-69
2023/01/30 09:54:29;;;;;;;;;;;19.20;50.70;;;;;;7674676;23;19904;-69
2023/01/30 09:57:30;;;;;;;;;;;19.20;50.90;;;;;;7674908;23;19915;-70
2023/01/30 10:00:35;;;;;;;;;;;19.20;50.90;;;;;;7674710;23;19912;-67
2023/01/30 10:03:40;;;;;;;;;;;19.10;50.90;;;;;;7675080;23;19963;-66
2023/01/30 10:06:47;;;;;;;;;;;19.10;51.00;;;;;;7675455;23;19928;-66
2023/01/30 10:09:51;;;;;;;;;;;19.10;50.70;;;;;;7675389;23;19912;-71
2023/01/30 10:12:51;;;;;;;;;;;19.10;50.10;;;;;;7673729;23;19912;-69
2023/01/30 10:16:12;;;;;;;;;;;19.10;49.60;;;;;;7675335;23;19930;-70
2023/01/30 10:19:22;;;;;;;;;;;19.10;50.00;;;;;;7628252;23;19993;-69
2023/01/30 10:22:32;;;;;;;;;;;19.10;50.90;;;;;;7674760;23;19918;-73
2023/01/30 10:25:44;;;;;;;;;;;19.10;50.40;;;;;;7678325;23;19905;-68
2023/01/30 10:28:48;;;;;;;;;;;19.10;50.40;;;;;;7678633;23;19908;-69
2023/01/30 10:31:52;;;;;;;;;;;19.10;50.50;;;;;;7677833;23;19916;-69
2023/01/30 10:34:54;;;;;;;;;;;19.10;50.60;;;;;;7677891;23;19911;-68
2023/01/30 10:38:09;;;;;;;;;;;19.20;50.40;;;;;;7678461;23;19911;-68
2023/01/30 10:41:42;;;;;;;;;;;19.20;50.60;;;;;;7678571;23;19905;-69
2023/01/30 10:44:42;;;;;;;;;;;19.20;50.50;;;;;;7644522;23;19912;-69
2023/01/30 10:47:59;;;;;;;;;;;19.20;50.50;;;;;;7676742;23;20324;-69
2023/01/30 10:51:04;;;;;;;;;;;19.20;50.60;;;;;;7678522;23;19986;-70
2023/01/30 10:54:12;;;;;;;;;;;19.20;50.60;;;;;;7678336;23;19966;-69
2023/01/30 10:57:26;;;;;;;;;;;19.20;50.60;;;;;;7676785;23;19954;-72
2023/01/30 11:00:37;;;;;;;;;;;19.20;50.60;;;;;;7678467;23;19911;-71
2023/01/30 11:03:46;;;;;;;;;;;19.20;50.60;;;;;;7678353;23;19987;-69
2023/01/30 11:06:48;;;;;;;;;;;19.20;51.30;;;;;;7678113;23;20261;-71
2023/01/30 11:09:48;;;;;;;;;;;19.20;50.70;;;;;;7678726;23;20217;-69
2023/01/30 11:12:51;;;;;;;;;;;19.20;50.70;;;;;;7676444;23;19908;-69
2023/01/30 11:15:54;;;;;;;;;;;19.20;50.70;;;;;;7678020;23;19912;-69
2023/01/30 11:18:57;;;;;;;;;;;19.20;50.70;;;;;;7677801;23;19912;-69
2023/01/30 11:22:02;;;;;;;;;;;19.20;50.70;;;;;;7676673;23;19908;-71
2023/01/30 11:25:05;;;;;;;;;;;19.20;50.70;;;;;;7676722;23;20352;-72
2023/01/30 11:28:05;;;;;;;;;;;19.20;50.70;;;;;;7677866;23;20328;-69
2023/01/30 11:31:15;;;;;;;;;;;19.20;50.70;;;;;;7677687;23;19913;-72
2023/01/30 11:34:16;;;;;;;;;;;19.20;50.70;;;;;;7677460;23;19931;-72
2023/01/30 11:37:23;;;;;;;;;;;19.20;50.70;;;;;;7678146;23;19984;-69
2023/01/30 11:40:26;;;;;;;;;;;19.20;50.70;;;;;;7675604;23;19904;-68
2023/01/30 11:43:27;;;;;;;;;;;19.20;50.80;;;;;;7675595;23;19954;-69
2023/01/30 11:46:33;;;;;;;;;;;19.10;50.70;;;;;;7673782;23;20024;-71
2023/01/30 11:49:38;;;;;;;;;;;19.20;50.20;;;;;;7676893;23;20224;-71
2023/01/30 11:52:41;;;;;;;;;;;19.10;49.20;;;;;;7676032;23;19905;-71
2023/01/30 11:55:41;;;;;;;;;;;19.20;48.80;;;;;;7676883;23;20391;-71
2023/01/30 11:58:46;;;;;;;;;;;19.20;49.40;;;;;;7676678;23;19958;-71
2023/01/30 12:01:47;;;;;;;;;;;19.20;50.30;;;;;;7675376;23;20328;-71
2023/01/30 12:04:52;;;;;;;;;;;19.20;49.80;;;;;;7676910;23;19952;-71
2023/01/30 12:08:09;;;;;;;;;;;19.20;49.90;;;;;;7676830;23;19911;-71
2023/01/30 12:11:27;;;;;;;;;;;19.20;49.90;;;;;;7675099;23;19951;-71
2023/01/30 12:14:34;;;;;;;;;;;19.20;49.90;;;;;;7677072;23;20354;-71
2023/01/30 12:17:45;;;;;;;;;;;19.20;49.90;;;;;;7675330;23;19982;-71
2023/01/30 12:20:55;;;;;;;;;;;19.20;50.10;;;;;;7676656;23;19908;-69
2023/01/30 12:24:12;;;;;;;;;;;19.20;50.10;;;;;;7676905;23;19908;-71
2023/01/30 12:27:28;;;;;;;;;;;19.30;50.30;;;;;;7675583;23;20243;-72
2023/01/30 12:30:33;;;;;;;;;;;19.30;50.30;;;;;;7676004;23;19904;-71
2023/01/30 12:33:35;;;;;;;;;;;19.20;50.30;;;;;;7674824;23;19923;-72
2023/01/30 12:36:48;;;;;;;;;;;19.20;50.30;;;;;;7676213;23;19911;-71
2023/01/30 12:40:09;;;;;;;;;;;19.20;50.40;;;;;;7674373;23;19931;-72
2023/01/30 12:43:28;;;;;;;;;;;19.30;50.50;;;;;;7665246;23;19909;-71
2023/01/30 12:46:32;;;;;;;;;;;19.20;50.40;;;;;;7676190;23;19904;-72
2023/01/30 12:50:00;;;;;;;;;;;19.30;50.50;;;;;;7674673;23;19904;-73
2023/01/30 12:53:22;;;;;;;;;;;19.30;50.50;;;;;;7670235;23;19904;-71
2023/01/30 12:56:41;;;;;;;;;;;19.30;50.60;;;;;;7675531;23;19979;-70
2023/01/30 12:59:47;;;;;;;;;;;19.30;50.60;;;;;;7674035;23;19915;-70
2023/01/30 13:02:57;;;;;;;;;;;19.30;50.60;;;;;;7676039;23;19908;-69
2023/01/30 13:06:02;;;;;;;;;;;19.20;50.50;;;;;;7675773;23;19987;-70
2023/01/30 13:09:09;;;;;;;;;;;19.30;50.70;;;;;;7673910;23;19930;-70
2023/01/30 13:12:33;;;;;;;;;;;19.30;50.70;;;;;;7675969;23;19928;-71
2023/01/30 13:15:37;;;;;;;;;;;19.20;50.60;;;;;;7647160;23;19904;-70
2023/01/30 13:18:42;;;;;;;;;;;19.30;50.70;;;;;;7675888;23;20408;-70
2023/01/30 13:21:47;;;;;;;;;;;19.30;50.70;;;;;;7674374;23;20331;-70
2023/01/30 13:25:00;;;;;;;;;;;19.30;50.60;;;;;;7674267;23;19915;-70
2023/01/30 13:28:21;;;;;;;;;;;19.30;50.70;;;;;;7676064;23;19904;-71
2023/01/30 13:31:23;;;;;;;;;;;19.30;50.70;;;;;;7674594;23;19924;-71
2023/01/30 13:34:24;;;;;;;;;;;19.30;50.70;;;;;;7675627;23;19931;-70
2023/01/30 13:37:24;;;;;;;;;;;19.30;50.70;;;;;;7674064;23;19983;-70
2023/01/30 13:40:33;;;;;;;;;;;19.30;50.70;;;;;;7674840;23;20225;-70
2023/01/30 13:43:43;;;;;;;;;;;19.30;50.70;;;;;;7674342;23;19908;-70
2023/01/30 13:46:44;;;;;;;;;;;19.30;50.80;;;;;;7675726;23;19904;-71
2023/01/30 13:50:00;;;;;;;;;;;19.30;50.80;;;;;;7674581;23;19952;-70
2023/01/30 13:53:39;;;;;;;;;;;19.20;50.70;;;;;;7675573;23;19904;-71
2023/01/30 13:56:52;;;;;;;;;;;19.30;51.00;;;;;;7573987;23;19905;-71
2023/01/30 13:59:52;;;;;;;;;;;19.30;50.70;;;;;;7601447;23;19936;-70
2023/01/30 14:03:03;;;;;;;;;;;19.30;50.50;;;;;;7678127;23;20031;-70
2023/01/30 14:06:06;;;;;;;;;;;19.30;50.70;;;;;;7669751;23;19959;-70
2023/01/30 14:09:23;;;;;;;;;;;19.30;50.70;;;;;;7677521;23;19904;-71
2023/01/30 14:12:33;;;;;;;;;;;19.40;50.80;;;;;;7676317;23;19912;-69
2023/01/30 14:15:35;;;;;;;;;;;19.40;50.80;;;;;;7677475;23;19912;-70
2023/01/30 14:18:39;;;;;;;;;;;19.40;50.80;;;;;;7676955;23;19905;-70
2023/01/30 14:21:52;;;;;;;;;;;19.40;50.80;;;;;;7676507;23;20312;-71
2023/01/30 14:25:11;;;;;;;;;;;19.30;50.70;;;;;;7677358;23;19912;-70
2023/01/30 14:28:12;;;;;;;;;;;19.30;50.70;;;;;;7677588;23;19960;-70
2023/01/30 14:31:32;;;;;;;;;;;19.30;50.70;;;;;;7677315;23;19916;-71
2023/01/30 14:34:41;;;;;;;;;;;19.30;50.80;;;;;;7675884;23;20332;-71
2023/01/30 14:37:41;;;;;;;;;;;19.30;50.70;;;;;;7677963;23;19952;-70
2023/01/30 14:41:02;;;;;;;;;;;19.30;50.80;;;;;;7677448;23;20011;-71
2023/01/30 14:44:03;;;;;;;;;;;19.30;50.80;;;;;;7667622;23;19912;-70
2023/01/30 14:47:16;;;;;;;;;;;19.30;50.80;;;;;;7677047;23;19911;-70
2023/01/30 14:50:19;;;;;;;;;;;19.30;50.80;;;;;;7675468;23;20214;-70
2023/01/30 14:53:20;;;;;;;;;;;19.30;50.80;;;;;;7675037;23;19905;-70
2023/01/30 14:56:39;;;;;;;;;;;19.40;51.00;;;;;;7675946;23;19970;-71
2023/01/30 14:59:49;;;;;;;;;;;19.30;50.90;;;;;;7671207;23;19904;-70
2023/01/30 15:02:51;;;;;;;;;;;19.30;50.80;;;;;;7677242;23;20384;-70
2023/01/30 15:05:52;;;;;;;;;;;19.30;50.80;;;;;;7674853;23;19908;-70
2023/01/30 15:08:54;;;;;;;;;;;19.40;50.90;;;;;;7677067;23;20407;-71
2023/01/30 15:12:00;;;;;;;;;;;19.30;50.80;;;;;;7676829;23;20243;-69
2023/01/30 15:15:10;;;;;;;;;;;19.30;50.80;;;;;;7677400;23;19904;-70
2023/01/30 15:18:17;;;;;;;;;;;19.30;50.90;;;;;;7677649;23;19991;-70
2023/01/30 15:21:36;;;;;;;;;;;19.40;50.90;;;;;;7675575;23;19904;-67
2023/01/30 15:24:42;;;;;;;;;;;19.40;50.90;;;;;;7674272;23;20312;-67
2023/01/30 15:27:46;;;;;;;;;;;19.30;51.00;;;;;;7675951;23;19904;-70
2023/01/30 15:30:51;;;;;;;;;;;19.30;50.80;;;;;;7676146;23;19904;-69
2023/01/30 15:33:53;;;;;;;;;;;19.30;50.20;;;;;;7675827;23;19940;-69
2023/01/30 15:36:54;;;;;;;;;;;19.30;48.90;;;;;;7677301;23;20098;-70
2023/01/30 15:40:16;;;;;;;;;;;19.30;49.20;;;;;;7676806;23;19911;-69
2023/01/30 15:43:23;;;;;;;;;;;19.30;49.40;;;;;;7677071;23;19958;-70
2023/01/30 15:46:33;;;;;;;;;;;19.30;49.60;;;;;;7677204;23;19904;-69
2023/01/30 15:49:42;;;;;;;;;;;19.40;49.80;;;;;;7675561;23;19915;-69
2023/01/30 15:52:45;;;;;;;;;;;19.30;49.80;;;;;;7674979;23;19911;-74
2023/01/30 15:55:45;;;;;;;;;;;19.30;49.90;;;;;;7677134;23;19904;-69
2023/01/30 15:58:46;;;;;;;;;;;19.30;50.00;;;;;;7675111;23;19971;-68
2023/01/30 16:01:47;;;;;;;;;;;19.30;50.00;;;;;;7676663;23;19904;-70
2023/01/30 16:04:47;;;;;;;;;;;19.30;50.10;;;;;;7677405;23;20351;-69
2023/01/30 16:07:49;;;;;;;;;;;19.30;50.10;;;;;;7675672;23;19904;-69
2023/01/30 16:10:50;;;;;;;;;;;19.30;50.20;;;;;;7676617;23;19983;-69
2023/01/30 16:13:51;;;;;;;;;;;19.30;50.20;;;;;;7676914;23;20272;-69
2023/01/30 16:16:55;;;;;;;;;;;19.30;50.20;;;;;;7677218;23;19908;-69
2023/01/30 16:19:59;;;;;;;;;;;19.30;50.20;;;;;;7676739;23;19905;-69
2023/01/30 16:23:00;;;;;;;;;;;19.30;50.30;;;;;;7676763;23;19970;-69
2023/01/30 16:26:01;;;;;;;;;;;19.30;50.30;;;;;;7676968;23;20411;-70
2023/01/30 16:29:05;;;;;;;;;;;19.30;50.30;;;;;;7674925;23;19908;-69
2023/01/30 16:32:16;;;;;;;;;;;19.30;50.30;;;;;;7676279;23;19999;-68
2023/01/30 16:35:27;;;;;;;;;;;19.30;50.30;;;;;;7676987;23;19935;-69
2023/01/30 16:38:30;;;;;;;;;;;19.30;50.30;;;;;;7676981;23;19911;-70
2023/01/30 16:41:31;;;;;;;;;;;19.30;50.40;;;;;;7676058;23;19904;-69
2023/01/30 16:44:31;;;;;;;;;;;19.30;50.40;;;;;;7676948;23;19915;-69
2023/01/30 16:47:33;;;;;;;;;;;19.30;50.50;;;;;;7676874;23;19904;-69
2023/01/30 16:50:34;;;;;;;;;;;19.20;50.40;;;;;;7674371;23;19912;-69
2023/01/30 16:53:34;;;;;;;;;;;19.30;50.50;;;;;;7676565;23;19904;-69
2023/01/30 16:56:35;;;;;;;;;;;19.20;50.40;;;;;;7676529;23;19911;-70
2023/01/30 16:59:36;;;;;;;;;;;19.30;50.50;;;;;;7675460;23;19936;-71
2023/01/30 17:02:39;;;;;;;;;;;19.20;50.40;;;;;;7671817;23;19947;-71
2023/01/30 17:05:41;;;;;;;;;;;19.20;50.40;;;;;;7674620;23;19932;-71
2023/01/30 17:08:47;;;;;;;;;;;19.30;50.40;;;;;;7675022;23;20320;-71
2023/01/30 17:11:48;;;;;;;;;;;19.30;50.40;;;;;;7674056;23;19911;-71
2023/01/30 17:14:48;;;;;;;;;;;19.30;50.40;;;;;;7673714;23;19909;-71
2023/01/30 17:17:49;;;;;;;;;;;19.30;50.30;;;;;;7672277;23;19931;-71
2023/01/30 17:20:50;;;;;;;;;;;19.30;50.30;;;;;;7672204;23;19909;-71
2023/01/30 17:23:53;;;;;;;;;;;19.30;50.30;;;;;;7672643;23;19960;-71
2023/01/30 17:26:59;;;;;;;;;;;19.30;50.30;;;;;;7673077;23;20015;-70
2023/01/30 17:29:59;;;;;;;;;;;19.30;50.30;;;;;;7673018;23;19975;-72
2023/01/30 17:33:00;;;;;;;;;;;19.30;50.20;;;;;;7672582;23;20332;-71
2023/01/30 17:36:02;;;;;;;;;;;19.30;50.30;;;;;;7671126;23;19962;-71
2023/01/30 17:39:07;;;;;;;;;;;19.30;50.30;;;;;;7672414;23;19904;-72
2023/01/30 17:42:08;;;;;;;;;;;19.30;50.30;;;;;;7672205;23;19947;-71
2023/01/30 17:45:09;;;;;;;;;;;19.30;50.30;;;;;;7671075;23;19905;-71
2023/01/30 17:48:10;;;;;;;;;;;19.30;50.40;;;;;;7672628;23;20248;-71
2023/01/30 17:51:13;;;;;;;;;;;19.30;50.30;;;;;;7671616;23;19912;-72
2023/01/30 17:54:15;;;;;;;;;;;19.30;50.40;;;;;;7671094;23;19933;-71
2023/01/30 17:57:15;;;;;;;;;;;19.30;50.30;;;;;;7670045;23;19931;-71
2023/01/30 18:00:17;;;;;;;;;;;19.30;50.30;;;;;;7672287;23;20252;-71
2023/01/30 18:03:18;;;;;;;;;;;19.30;50.40;;;;;;7670937;23;19963;-71
2023/01/30 18:06:18;;;;;;;;;;;19.30;50.40;;;;;;7673368;23;19904;-71